createdAt,value
2018-09-12T00:00:05.520Z,186
2018-09-12T00:00:17.943Z,186
2018-09-12T00:00:30.365Z,181
2018-09-12T00:00:42.798Z,213
2018-09-12T00:00:55.198Z,213
2018-09-12T00:01:07.629Z,213
2018-09-12T00:01:20.106Z,213
2018-09-12T00:01:32.507Z,213
2018-09-12T00:01:44.922Z,213
2018-09-12T00:01:57.368Z,213
2018-09-12T00:02:09.779Z,170
2018-09-12T00:02:22.164Z,171
2018-09-12T00:02:34.619Z,178
2018-09-12T00:02:47.014Z,178
2018-09-12T00:02:59.428Z,178
2018-09-12T00:03:11.832Z,178
2018-09-12T00:03:24.706Z,178
2018-09-12T00:03:37.512Z,178
2018-09-12T00:03:49.894Z,178
2018-09-12T00:04:02.311Z,178
2018-09-12T00:04:14.702Z,178
2018-09-12T00:04:27.115Z,178
2018-09-12T00:04:39.505Z,178
2018-09-12T00:04:51.919Z,178
2018-09-12T00:05:04.334Z,178
2018-09-12T00:05:16.763Z,178
2018-09-12T00:05:29.170Z,178
2018-09-12T00:05:41.590Z,178
2018-09-12T00:05:53.997Z,178
2018-09-12T00:06:06.397Z,178
2018-09-12T00:06:18.862Z,178
2018-09-12T00:06:31.256Z,178
2018-09-12T00:06:43.668Z,178
2018-09-12T00:06:56.067Z,178
2018-09-12T00:07:08.477Z,178
2018-09-12T00:07:20.903Z,178
2018-09-12T00:07:33.311Z,178
2018-09-12T00:07:45.709Z,178
2018-09-12T00:07:58.150Z,178
2018-09-12T00:08:10.576Z,174
2018-09-12T00:08:22.989Z,185
2018-09-12T00:08:35.676Z,256
2018-09-12T00:08:48.092Z,223
2018-09-12T00:09:00.490Z,223
2018-09-12T00:09:12.892Z,191
2018-09-12T00:09:25.309Z,172
2018-09-12T00:09:37.711Z,215
2018-09-12T00:09:50.094Z,215
2018-09-12T00:10:02.493Z,215
2018-09-12T00:10:15.228Z,215
2018-09-12T00:10:27.752Z,215
2018-09-12T00:10:40.142Z,215
2018-09-12T00:10:52.536Z,215
2018-09-12T00:11:04.936Z,215
2018-09-12T00:11:17.329Z,215
2018-09-12T00:11:29.731Z,215
2018-09-12T00:11:42.315Z,215
2018-09-12T00:11:54.789Z,201
2018-09-12T00:12:07.189Z,184
2018-09-12T00:12:19.602Z,184
2018-09-12T00:12:32.001Z,184
2018-09-12T00:12:44.397Z,184
2018-09-12T00:12:56.797Z,184
2018-09-12T00:13:09.205Z,184
2018-09-12T00:13:21.602Z,184
2018-09-12T00:13:33.994Z,194
2018-09-12T00:13:46.411Z,194
2018-09-12T00:13:58.936Z,194
2018-09-12T00:14:11.334Z,194
2018-09-12T00:14:23.723Z,194
2018-09-12T00:14:36.105Z,194
2018-09-12T00:14:48.545Z,194
2018-09-12T00:15:00.959Z,194
2018-09-12T00:15:13.383Z,194
2018-09-12T00:15:25.783Z,194
2018-09-12T00:15:38.173Z,194
2018-09-12T00:15:50.576Z,194
2018-09-12T00:16:02.990Z,194
2018-09-12T00:16:15.414Z,195
2018-09-12T00:16:27.814Z,195
2018-09-12T00:16:40.206Z,195
2018-09-12T00:16:52.587Z,210
2018-09-12T00:17:05.000Z,244
2018-09-12T00:17:17.386Z,254
2018-09-12T00:17:29.845Z,248
2018-09-12T00:17:42.367Z,248
2018-09-12T00:17:54.760Z,157
2018-09-12T00:18:07.170Z,178
2018-09-12T00:18:19.580Z,181
2018-09-12T00:18:32.089Z,194
2018-09-12T00:18:44.525Z,194
2018-09-12T00:18:56.932Z,194
2018-09-12T00:19:09.335Z,194
2018-09-12T00:19:21.723Z,194
2018-09-12T00:19:34.109Z,194
2018-09-12T00:19:46.494Z,194
2018-09-12T00:19:58.907Z,194
2018-09-12T00:20:11.333Z,194
2018-09-12T00:20:23.736Z,194
2018-09-12T00:20:36.130Z,194
2018-09-12T00:20:48.553Z,194
2018-09-12T00:21:01.316Z,194
2018-09-12T00:21:14.942Z,194
2018-09-12T00:21:28.029Z,194
2018-09-12T00:21:40.449Z,197
2018-09-12T00:21:52.864Z,197
2018-09-12T00:22:05.277Z,244
2018-09-12T00:22:17.678Z,238
2018-09-12T00:22:30.075Z,238
2018-09-12T00:22:42.495Z,238
2018-09-12T00:22:54.890Z,238
2018-09-12T00:23:07.325Z,238
2018-09-12T00:23:19.811Z,238
2018-09-12T00:23:32.200Z,238
2018-09-12T00:23:44.604Z,238
2018-09-12T00:23:57.261Z,238
2018-09-12T00:24:09.683Z,205
2018-09-12T00:24:22.080Z,205
2018-09-12T00:24:34.854Z,205
2018-09-12T00:24:47.288Z,205
2018-09-12T00:24:59.766Z,211
2018-09-12T00:25:12.256Z,213
2018-09-12T00:25:24.683Z,213
2018-09-12T00:25:37.277Z,213
2018-09-12T00:25:49.683Z,213
2018-09-12T00:26:02.085Z,213
2018-09-12T00:26:14.516Z,213
2018-09-12T00:26:26.936Z,213
2018-09-12T00:26:39.342Z,192
2018-09-12T00:26:51.743Z,197
2018-09-12T00:27:04.203Z,196
2018-09-12T00:27:16.615Z,196
2018-09-12T00:27:29.025Z,196
2018-09-12T00:27:41.426Z,196
2018-09-12T00:27:53.860Z,196
2018-09-12T00:28:06.271Z,196
2018-09-12T00:28:18.670Z,196
2018-09-12T00:28:31.059Z,196
2018-09-12T00:28:43.460Z,196
2018-09-12T00:28:55.852Z,196
2018-09-12T00:29:08.238Z,196
2018-09-12T00:29:20.654Z,196
2018-09-12T00:29:33.059Z,196
2018-09-12T00:29:45.627Z,196
2018-09-12T00:29:58.017Z,196
2018-09-12T00:30:10.413Z,196
2018-09-12T00:30:22.854Z,196
2018-09-12T00:30:35.253Z,198
2018-09-12T00:30:47.655Z,198
2018-09-12T00:31:00.095Z,198
2018-09-12T00:31:12.484Z,198
2018-09-12T00:31:25.137Z,198
2018-09-12T00:31:37.540Z,198
2018-09-12T00:31:49.938Z,237
2018-09-12T00:32:02.344Z,237
2018-09-12T00:32:14.760Z,237
2018-09-12T00:32:27.171Z,237
2018-09-12T00:32:39.634Z,237
2018-09-12T00:32:52.044Z,237
2018-09-12T00:33:04.463Z,237
2018-09-12T00:33:16.913Z,237
2018-09-12T00:33:29.314Z,237
2018-09-12T00:33:41.758Z,237
2018-09-12T00:33:54.166Z,237
2018-09-12T00:34:06.564Z,237
2018-09-12T00:34:18.960Z,237
2018-09-12T00:34:31.375Z,237
2018-09-12T00:34:43.788Z,237
2018-09-12T00:34:56.169Z,237
2018-09-12T00:35:08.566Z,237
2018-09-12T00:35:20.949Z,237
2018-09-12T00:35:33.356Z,237
2018-09-12T00:35:45.752Z,237
2018-09-12T00:35:58.156Z,237
2018-09-12T00:36:10.570Z,237
2018-09-12T00:36:23.108Z,237
2018-09-12T00:36:35.534Z,237
2018-09-12T00:36:47.933Z,237
2018-09-12T00:37:00.349Z,237
2018-09-12T00:37:12.772Z,237
2018-09-12T00:37:25.469Z,237
2018-09-12T00:37:37.891Z,237
2018-09-12T00:37:50.336Z,237
2018-09-12T00:38:02.746Z,237
2018-09-12T00:38:15.139Z,237
2018-09-12T00:38:27.583Z,237
2018-09-12T00:38:39.986Z,237
2018-09-12T00:38:52.397Z,237
2018-09-12T00:39:04.798Z,237
2018-09-12T00:39:17.244Z,239
2018-09-12T00:39:29.658Z,239
2018-09-12T00:39:42.045Z,239
2018-09-12T00:39:54.486Z,239
2018-09-12T00:40:06.883Z,215
2018-09-12T00:40:19.300Z,218
2018-09-12T00:40:31.706Z,218
2018-09-12T00:40:44.106Z,218
2018-09-12T00:40:56.543Z,218
2018-09-12T00:41:09.019Z,216
2018-09-12T00:41:21.410Z,213
2018-09-12T00:41:33.807Z,213
2018-09-12T00:41:46.228Z,214
2018-09-12T00:41:58.629Z,214
2018-09-12T00:42:11.020Z,214
2018-09-12T00:42:23.479Z,214
2018-09-12T00:42:35.880Z,214
2018-09-12T00:42:48.308Z,207
2018-09-12T00:43:00.704Z,191
2018-09-12T00:43:13.100Z,191
2018-09-12T00:43:25.522Z,191
2018-09-12T00:43:37.938Z,190
2018-09-12T00:43:50.331Z,190
2018-09-12T00:44:02.735Z,190
2018-09-12T00:44:15.145Z,190
2018-09-12T00:44:27.572Z,190
2018-09-12T00:44:39.976Z,190
2018-09-12T00:44:52.370Z,190
2018-09-12T00:45:04.796Z,190
2018-09-12T00:45:17.182Z,190
2018-09-12T00:45:29.587Z,190
2018-09-12T00:45:41.981Z,190
2018-09-12T00:45:54.403Z,190
2018-09-12T00:46:06.795Z,190
2018-09-12T00:46:19.204Z,190
2018-09-12T00:46:31.600Z,190
2018-09-12T00:46:44.291Z,190
2018-09-12T00:46:56.707Z,190
2018-09-12T00:47:09.109Z,190
2018-09-12T00:47:21.505Z,197
2018-09-12T00:47:33.902Z,197
2018-09-12T00:47:46.302Z,197
2018-09-12T00:47:58.723Z,197
2018-09-12T00:48:11.129Z,232
2018-09-12T00:48:23.535Z,232
2018-09-12T00:48:36.003Z,232
2018-09-12T00:48:48.406Z,234
2018-09-12T00:49:00.801Z,234
2018-09-12T00:49:13.471Z,225
2018-09-12T00:49:25.883Z,225
2018-09-12T00:49:38.296Z,225
2018-09-12T00:49:50.701Z,225
2018-09-12T00:50:03.210Z,225
2018-09-12T00:50:15.744Z,225
2018-09-12T00:50:28.130Z,225
2018-09-12T00:50:40.602Z,192
2018-09-12T00:50:52.995Z,192
2018-09-12T00:51:05.405Z,192
2018-09-12T00:51:17.812Z,192
2018-09-12T00:51:30.250Z,192
2018-09-12T00:51:42.666Z,192
2018-09-12T00:51:55.057Z,192
2018-09-12T00:52:07.481Z,199
2018-09-12T00:52:19.881Z,198
2018-09-12T00:52:32.304Z,182
2018-09-12T00:52:44.700Z,182
2018-09-12T00:52:57.096Z,182
2018-09-12T00:53:09.541Z,182
2018-09-12T00:53:21.937Z,182
2018-09-12T00:53:34.326Z,182
2018-09-12T00:53:46.728Z,182
2018-09-12T00:53:59.132Z,182
2018-09-12T00:54:11.545Z,182
2018-09-12T00:54:23.971Z,182
2018-09-12T00:54:36.404Z,217
2018-09-12T00:54:48.872Z,217
2018-09-12T00:55:01.284Z,217
2018-09-12T00:55:13.692Z,217
2018-09-12T00:55:26.084Z,217
2018-09-12T00:55:38.489Z,217
2018-09-12T00:55:50.884Z,217
2018-09-12T00:56:03.585Z,217
2018-09-12T00:56:15.996Z,217
2018-09-12T00:56:28.397Z,217
2018-09-12T00:56:40.793Z,186
2018-09-12T00:56:53.260Z,200
2018-09-12T00:57:05.746Z,200
2018-09-12T00:57:18.166Z,200
2018-09-12T00:57:30.578Z,200
2018-09-12T00:57:42.980Z,200
2018-09-12T00:57:55.393Z,200
2018-09-12T00:58:07.876Z,209
2018-09-12T00:58:20.274Z,188
2018-09-12T00:58:32.701Z,188
2018-09-12T00:58:45.116Z,188
2018-09-12T00:58:57.517Z,188
2018-09-12T00:59:09.936Z,188
2018-09-12T00:59:22.546Z,188
2018-09-12T00:59:34.994Z,188
2018-09-12T00:59:47.431Z,188
2018-09-12T00:59:59.867Z,188
2018-09-12T01:00:12.332Z,188
2018-09-12T01:00:24.897Z,190
2018-09-12T01:00:37.334Z,191
2018-09-12T01:00:49.762Z,193
2018-09-12T01:01:02.174Z,193
2018-09-12T01:01:14.594Z,193
2018-09-12T01:01:27.005Z,193
2018-09-12T01:01:39.421Z,193
2018-09-12T01:01:51.839Z,193
2018-09-12T01:02:04.268Z,193
2018-09-12T01:02:16.650Z,193
2018-09-12T01:02:29.085Z,155
2018-09-12T01:02:41.485Z,171
2018-09-12T01:02:53.898Z,175
2018-09-12T01:03:06.304Z,175
2018-09-12T01:03:18.849Z,175
2018-09-12T01:03:31.264Z,175
2018-09-12T01:03:43.940Z,175
2018-09-12T01:03:56.342Z,175
2018-09-12T01:04:08.763Z,175
2018-09-12T01:04:21.307Z,174
2018-09-12T01:04:33.731Z,174
2018-09-12T01:04:46.251Z,174
2018-09-12T01:04:58.671Z,174
2018-09-12T01:05:11.093Z,174
2018-09-12T01:05:23.487Z,174
2018-09-12T01:05:35.884Z,174
2018-09-12T01:05:48.286Z,174
2018-09-12T01:06:00.716Z,174
2018-09-12T01:06:13.135Z,174
2018-09-12T01:06:25.579Z,174
2018-09-12T01:06:37.966Z,240
2018-09-12T01:06:50.362Z,240
2018-09-12T01:07:02.774Z,240
2018-09-12T01:07:15.191Z,240
2018-09-12T01:07:27.632Z,239
2018-09-12T01:07:40.052Z,223
2018-09-12T01:07:52.463Z,230
2018-09-12T01:08:04.856Z,230
2018-09-12T01:08:17.268Z,230
2018-09-12T01:08:29.703Z,225
2018-09-12T01:08:42.113Z,225
2018-09-12T01:08:54.530Z,225
2018-09-12T01:09:06.996Z,225
2018-09-12T01:09:19.448Z,224
2018-09-12T01:09:31.899Z,224
2018-09-12T01:09:44.306Z,224
2018-09-12T01:09:56.706Z,224
2018-09-12T01:10:09.116Z,217
2018-09-12T01:10:21.830Z,198
2018-09-12T01:10:34.236Z,198
2018-09-12T01:10:46.616Z,198
2018-09-12T01:10:59.048Z,199
2018-09-12T01:11:11.443Z,199
2018-09-12T01:11:23.835Z,199
2018-09-12T01:11:36.255Z,199
2018-09-12T01:11:48.823Z,199
2018-09-12T01:12:01.349Z,199
2018-09-12T01:12:13.767Z,199
2018-09-12T01:12:26.227Z,199
2018-09-12T01:12:38.633Z,199
2018-09-12T01:12:51.042Z,199
2018-09-12T01:13:03.468Z,199
2018-09-12T01:13:15.879Z,203
2018-09-12T01:13:28.271Z,200
2018-09-12T01:13:40.685Z,209
2018-09-12T01:13:53.146Z,209
2018-09-12T01:14:05.561Z,209
2018-09-12T01:14:17.982Z,175
2018-09-12T01:14:30.381Z,166
2018-09-12T01:14:42.798Z,166
2018-09-12T01:14:55.268Z,166
2018-09-12T01:15:07.902Z,230
2018-09-12T01:15:20.302Z,230
2018-09-12T01:15:32.716Z,230
2018-09-12T01:15:45.135Z,232
2018-09-12T01:15:57.527Z,232
2018-09-12T01:16:09.925Z,232
2018-09-12T01:16:22.303Z,232
2018-09-12T01:16:34.725Z,232
2018-09-12T01:16:47.197Z,232
2018-09-12T01:16:59.601Z,232
2018-09-12T01:17:12.028Z,232
2018-09-12T01:17:24.464Z,257
2018-09-12T01:17:36.878Z,256
2018-09-12T01:17:49.379Z,182
2018-09-12T01:18:01.812Z,180
2018-09-12T01:18:14.209Z,180
2018-09-12T01:18:26.616Z,180
2018-09-12T01:18:39.086Z,180
2018-09-12T01:18:51.488Z,180
2018-09-12T01:19:03.893Z,173
2018-09-12T01:19:16.306Z,173
2018-09-12T01:19:28.746Z,173
2018-09-12T01:19:41.126Z,182
2018-09-12T01:19:53.537Z,184
2018-09-12T01:20:05.950Z,185
2018-09-12T01:20:18.364Z,187
2018-09-12T01:20:30.793Z,187
2018-09-12T01:20:43.192Z,187
2018-09-12T01:20:55.754Z,197
2018-09-12T01:21:08.165Z,198
2018-09-12T01:21:20.589Z,198
2018-09-12T01:21:33.014Z,198
2018-09-12T01:21:45.417Z,199
2018-09-12T01:21:57.805Z,201
2018-09-12T01:22:10.231Z,235
2018-09-12T01:22:22.639Z,235
2018-09-12T01:22:35.042Z,235
2018-09-12T01:22:47.445Z,235
2018-09-12T01:22:59.856Z,235
2018-09-12T01:23:12.361Z,235
2018-09-12T01:23:24.769Z,235
2018-09-12T01:23:37.180Z,235
2018-09-12T01:23:49.599Z,235
2018-09-12T01:24:02.091Z,235
2018-09-12T01:24:14.490Z,235
2018-09-12T01:24:26.888Z,235
2018-09-12T01:24:39.287Z,218
2018-09-12T01:24:51.697Z,218
2018-09-12T01:25:04.112Z,218
2018-09-12T01:25:16.512Z,218
2018-09-12T01:25:28.922Z,218
2018-09-12T01:25:41.576Z,240
2018-09-12T01:25:53.989Z,200
2018-09-12T01:26:06.415Z,200
2018-09-12T01:26:18.846Z,200
2018-09-12T01:26:31.243Z,200
2018-09-12T01:26:43.645Z,200
2018-09-12T01:26:56.042Z,200
2018-09-12T01:27:08.458Z,200
2018-09-12T01:27:20.894Z,200
2018-09-12T01:27:33.310Z,200
2018-09-12T01:27:45.724Z,200
2018-09-12T01:27:58.125Z,193
2018-09-12T01:28:10.523Z,223
2018-09-12T01:28:22.936Z,212
2018-09-12T01:28:35.337Z,212
2018-09-12T01:28:47.736Z,212
2018-09-12T01:29:00.186Z,212
2018-09-12T01:29:12.595Z,212
2018-09-12T01:29:25.006Z,212
2018-09-12T01:29:37.405Z,212
2018-09-12T01:29:49.811Z,212
2018-09-12T01:30:02.231Z,213
2018-09-12T01:30:14.623Z,213
2018-09-12T01:30:27.080Z,213
2018-09-12T01:30:39.472Z,213
2018-09-12T01:30:51.935Z,213
2018-09-12T01:31:04.362Z,213
2018-09-12T01:31:16.770Z,213
2018-09-12T01:31:29.170Z,211
2018-09-12T01:31:41.600Z,202
2018-09-12T01:31:54.251Z,184
2018-09-12T01:32:06.706Z,184
2018-09-12T01:32:19.107Z,196
2018-09-12T01:32:31.488Z,245
2018-09-12T01:32:43.893Z,246
2018-09-12T01:32:56.291Z,246
2018-09-12T01:33:08.700Z,246
2018-09-12T01:33:21.118Z,246
2018-09-12T01:33:33.528Z,246
2018-09-12T01:33:45.934Z,246
2018-09-12T01:33:58.347Z,246
2018-09-12T01:34:10.743Z,246
2018-09-12T01:34:23.151Z,246
2018-09-12T01:34:35.555Z,246
2018-09-12T01:34:47.982Z,246
2018-09-12T01:35:00.413Z,246
2018-09-12T01:35:12.811Z,190
2018-09-12T01:35:25.235Z,190
2018-09-12T01:35:37.628Z,190
2018-09-12T01:35:50.041Z,246
2018-09-12T01:36:02.445Z,246
2018-09-12T01:36:14.865Z,246
2018-09-12T01:36:27.277Z,246
2018-09-12T01:36:39.674Z,246
2018-09-12T01:36:52.090Z,227
2018-09-12T01:37:04.536Z,253
2018-09-12T01:37:16.966Z,193
2018-09-12T01:37:29.521Z,177
2018-09-12T01:37:41.932Z,177
2018-09-12T01:37:54.352Z,177
2018-09-12T01:38:06.815Z,180
2018-09-12T01:38:19.235Z,180
2018-09-12T01:38:31.640Z,202
2018-09-12T01:38:44.045Z,205
2018-09-12T01:38:56.443Z,205
2018-09-12T01:39:08.891Z,205
2018-09-12T01:39:21.305Z,190
2018-09-12T01:39:33.699Z,190
2018-09-12T01:39:46.114Z,190
2018-09-12T01:39:58.511Z,190
2018-09-12T01:40:10.919Z,190
2018-09-12T01:40:23.318Z,190
2018-09-12T01:40:35.765Z,190
2018-09-12T01:40:48.228Z,190
2018-09-12T01:41:00.625Z,190
2018-09-12T01:41:13.023Z,190
2018-09-12T01:41:25.408Z,190
2018-09-12T01:41:37.808Z,190
2018-09-12T01:41:50.191Z,190
2018-09-12T01:42:02.595Z,196
2018-09-12T01:42:14.985Z,196
2018-09-12T01:42:27.399Z,196
2018-09-12T01:42:39.812Z,196
2018-09-12T01:42:52.313Z,197
2018-09-12T01:43:04.711Z,222
2018-09-12T01:43:17.107Z,209
2018-09-12T01:43:29.492Z,190
2018-09-12T01:43:41.892Z,187
2018-09-12T01:43:54.289Z,188
2018-09-12T01:44:06.701Z,217
2018-09-12T01:44:19.128Z,257
2018-09-12T01:44:31.589Z,183
2018-09-12T01:44:43.985Z,194
2018-09-12T01:44:56.378Z,290
2018-09-12T01:45:08.782Z,290
2018-09-12T01:45:21.191Z,290
2018-09-12T01:45:33.583Z,290
2018-09-12T01:45:46.000Z,290
2018-09-12T01:45:58.411Z,244
2018-09-12T01:46:10.839Z,263
2018-09-12T01:46:23.239Z,215
2018-09-12T01:46:35.664Z,217
2018-09-12T01:46:48.079Z,203
2018-09-12T01:47:00.481Z,246
2018-09-12T01:47:12.913Z,246
2018-09-12T01:47:25.341Z,246
2018-09-12T01:47:37.753Z,246
2018-09-12T01:47:50.236Z,246
2018-09-12T01:48:02.644Z,246
2018-09-12T01:48:15.066Z,246
2018-09-12T01:48:27.481Z,246
2018-09-12T01:48:39.876Z,246
2018-09-12T01:48:52.274Z,225
2018-09-12T01:49:04.696Z,219
2018-09-12T01:49:17.285Z,219
2018-09-12T01:49:29.715Z,182
2018-09-12T01:49:42.143Z,162
2018-09-12T01:49:54.538Z,162
2018-09-12T01:50:06.951Z,190
2018-09-12T01:50:19.374Z,207
2018-09-12T01:50:31.774Z,219
2018-09-12T01:50:44.194Z,219
2018-09-12T01:50:56.792Z,219
2018-09-12T01:51:09.195Z,205
2018-09-12T01:51:21.614Z,205
2018-09-12T01:51:34.006Z,205
2018-09-12T01:51:46.442Z,205
2018-09-12T01:51:58.854Z,168
2018-09-12T01:52:11.278Z,171
2018-09-12T01:52:23.695Z,171
2018-09-12T01:52:36.132Z,171
2018-09-12T01:52:48.564Z,171
2018-09-12T01:53:00.990Z,171
2018-09-12T01:53:13.636Z,171
2018-09-12T01:53:26.067Z,171
2018-09-12T01:53:38.571Z,171
2018-09-12T01:53:51.000Z,171
2018-09-12T01:54:03.402Z,170
2018-09-12T01:54:15.804Z,229
2018-09-12T01:54:28.243Z,242
2018-09-12T01:54:40.669Z,190
2018-09-12T01:54:53.081Z,178
2018-09-12T01:55:05.533Z,178
2018-09-12T01:55:17.941Z,178
2018-09-12T01:55:30.349Z,183
2018-09-12T01:55:42.761Z,186
2018-09-12T01:55:55.306Z,191
2018-09-12T01:56:07.708Z,191
2018-09-12T01:56:20.104Z,256
2018-09-12T01:56:32.523Z,248
2018-09-12T01:56:45.017Z,250
2018-09-12T01:56:57.416Z,250
2018-09-12T01:57:09.813Z,250
2018-09-12T01:57:22.223Z,246
2018-09-12T01:57:34.652Z,246
2018-09-12T01:57:47.055Z,246
2018-09-12T01:57:59.456Z,246
2018-09-12T01:58:11.898Z,246
2018-09-12T01:58:24.311Z,246
2018-09-12T01:58:36.751Z,246
2018-09-12T01:58:49.160Z,246
2018-09-12T01:59:01.570Z,197
2018-09-12T01:59:13.979Z,197
2018-09-12T01:59:26.407Z,197
2018-09-12T01:59:38.812Z,197
2018-09-12T01:59:51.234Z,197
2018-09-12T02:00:03.655Z,197
2018-09-12T02:00:16.132Z,197
2018-09-12T02:00:28.550Z,197
2018-09-12T02:00:40.978Z,197
2018-09-12T02:00:53.406Z,236
2018-09-12T02:01:05.843Z,233
2018-09-12T02:01:18.261Z,234
2018-09-12T02:01:30.679Z,234
2018-09-12T02:01:43.124Z,234
2018-09-12T02:01:55.535Z,234
2018-09-12T02:02:07.948Z,234
2018-09-12T02:02:20.357Z,234
2018-09-12T02:02:32.771Z,245
2018-09-12T02:02:45.185Z,245
2018-09-12T02:02:57.628Z,229
2018-09-12T02:03:10.036Z,229
2018-09-12T02:03:22.682Z,229
2018-09-12T02:03:35.112Z,229
2018-09-12T02:03:47.929Z,229
2018-09-12T02:04:00.368Z,229
2018-09-12T02:04:12.785Z,221
2018-09-12T02:04:25.254Z,190
2018-09-12T02:04:37.687Z,186
2018-09-12T02:04:50.082Z,186
2018-09-12T02:05:02.494Z,181
2018-09-12T02:05:14.891Z,190
2018-09-12T02:05:27.302Z,196
2018-09-12T02:05:39.725Z,212
2018-09-12T02:05:52.170Z,212
2018-09-12T02:06:04.579Z,209
2018-09-12T02:06:16.981Z,193
2018-09-12T02:06:29.388Z,193
2018-09-12T02:06:41.790Z,173
2018-09-12T02:06:54.188Z,171
2018-09-12T02:07:06.592Z,185
2018-09-12T02:07:19.005Z,207
2018-09-12T02:07:31.408Z,203
2018-09-12T02:07:43.835Z,205
2018-09-12T02:07:56.233Z,205
2018-09-12T02:08:08.652Z,209
2018-09-12T02:08:21.057Z,213
2018-09-12T02:08:33.471Z,185
2018-09-12T02:08:45.906Z,185
2018-09-12T02:08:58.310Z,185
2018-09-12T02:09:10.716Z,185
2018-09-12T02:09:23.119Z,185
2018-09-12T02:09:35.503Z,195
2018-09-12T02:09:47.921Z,178
2018-09-12T02:10:00.324Z,169
2018-09-12T02:10:12.751Z,217
2018-09-12T02:10:25.830Z,229
2018-09-12T02:10:38.255Z,188
2018-09-12T02:10:50.663Z,186
2018-09-12T02:11:03.059Z,186
2018-09-12T02:11:15.456Z,186
2018-09-12T02:11:27.881Z,196
2018-09-12T02:11:40.413Z,196
2018-09-12T02:11:53.005Z,196
2018-09-12T02:12:05.415Z,196
2018-09-12T02:12:17.810Z,196
2018-09-12T02:12:30.231Z,196
2018-09-12T02:12:42.645Z,172
2018-09-12T02:12:55.049Z,172
2018-09-12T02:13:07.464Z,240
2018-09-12T02:13:19.945Z,240
2018-09-12T02:13:32.354Z,240
2018-09-12T02:13:44.758Z,240
2018-09-12T02:13:57.167Z,240
2018-09-12T02:14:09.593Z,240
2018-09-12T02:14:22.016Z,240
2018-09-12T02:14:34.442Z,240
2018-09-12T02:14:46.862Z,240
2018-09-12T02:14:59.245Z,236
2018-09-12T02:15:11.683Z,236
2018-09-12T02:15:24.094Z,236
2018-09-12T02:15:36.476Z,236
2018-09-12T02:15:48.863Z,236
2018-09-12T02:16:01.283Z,236
2018-09-12T02:16:13.733Z,236
2018-09-12T02:16:26.143Z,236
2018-09-12T02:16:38.558Z,236
2018-09-12T02:16:50.954Z,236
2018-09-12T02:17:03.395Z,236
2018-09-12T02:17:15.804Z,236
2018-09-12T02:17:28.206Z,236
2018-09-12T02:17:40.616Z,258
2018-09-12T02:17:53.034Z,229
2018-09-12T02:18:05.441Z,228
2018-09-12T02:18:17.996Z,228
2018-09-12T02:18:30.408Z,228
2018-09-12T02:18:42.839Z,228
2018-09-12T02:18:55.248Z,228
2018-09-12T02:19:07.659Z,228
2018-09-12T02:19:20.067Z,228
2018-09-12T02:19:32.477Z,228
2018-09-12T02:19:44.881Z,227
2018-09-12T02:19:57.287Z,217
2018-09-12T02:20:09.701Z,263
2018-09-12T02:20:22.106Z,263
2018-09-12T02:20:34.509Z,242
2018-09-12T02:20:46.926Z,260
2018-09-12T02:20:59.422Z,260
2018-09-12T02:21:11.821Z,260
2018-09-12T02:21:24.213Z,260
2018-09-12T02:21:36.623Z,260
2018-09-12T02:21:49.058Z,260
2018-09-12T02:22:01.474Z,260
2018-09-12T02:22:13.894Z,260
2018-09-12T02:22:26.319Z,260
2018-09-12T02:22:38.743Z,260
2018-09-12T02:22:51.155Z,260
2018-09-12T02:23:03.546Z,260
2018-09-12T02:23:16.105Z,260
2018-09-12T02:23:28.491Z,260
2018-09-12T02:23:40.903Z,260
2018-09-12T02:23:53.312Z,260
2018-09-12T02:24:05.890Z,260
2018-09-12T02:24:18.342Z,205
2018-09-12T02:24:30.732Z,240
2018-09-12T02:24:43.159Z,249
2018-09-12T02:24:55.563Z,249
2018-09-12T02:25:08.035Z,249
2018-09-12T02:25:20.469Z,249
2018-09-12T02:25:33.039Z,249
2018-09-12T02:25:45.506Z,202
2018-09-12T02:25:57.921Z,197
2018-09-12T02:26:10.353Z,228
2018-09-12T02:26:22.768Z,238
2018-09-12T02:26:35.187Z,218
2018-09-12T02:26:47.611Z,218
2018-09-12T02:27:00.018Z,218
2018-09-12T02:27:12.422Z,218
2018-09-12T02:27:24.817Z,218
2018-09-12T02:27:37.229Z,218
2018-09-12T02:27:49.634Z,218
2018-09-12T02:28:02.094Z,218
2018-09-12T02:28:14.939Z,218
2018-09-12T02:28:27.390Z,218
2018-09-12T02:28:39.814Z,218
2018-09-12T02:28:52.220Z,218
2018-09-12T02:29:04.841Z,218
2018-09-12T02:29:17.255Z,218
2018-09-12T02:29:29.673Z,218
2018-09-12T02:29:42.082Z,218
2018-09-12T02:29:54.488Z,218
2018-09-12T02:30:06.928Z,218
2018-09-12T02:30:19.372Z,218
2018-09-12T02:30:31.806Z,218
2018-09-12T02:30:44.211Z,218
2018-09-12T02:30:56.607Z,218
2018-09-12T02:31:09.028Z,218
2018-09-12T02:31:21.559Z,218
2018-09-12T02:31:33.990Z,218
2018-09-12T02:31:46.382Z,218
2018-09-12T02:31:58.818Z,218
2018-09-12T02:32:11.266Z,218
2018-09-12T02:32:23.682Z,218
2018-09-12T02:32:36.264Z,218
2018-09-12T02:32:48.693Z,218
2018-09-12T02:33:01.105Z,218
2018-09-12T02:33:13.509Z,215
2018-09-12T02:33:25.914Z,215
2018-09-12T02:33:38.319Z,215
2018-09-12T02:33:50.736Z,215
2018-09-12T02:34:03.160Z,215
2018-09-12T02:34:15.569Z,215
2018-09-12T02:34:27.973Z,215
2018-09-12T02:34:40.404Z,215
2018-09-12T02:34:52.829Z,215
2018-09-12T02:35:05.294Z,215
2018-09-12T02:35:17.709Z,215
2018-09-12T02:35:30.171Z,215
2018-09-12T02:35:42.606Z,215
2018-09-12T02:35:55.025Z,217
2018-09-12T02:36:07.429Z,222
2018-09-12T02:36:19.881Z,222
2018-09-12T02:36:32.377Z,222
2018-09-12T02:36:44.817Z,222
2018-09-12T02:36:57.258Z,222
2018-09-12T02:37:09.664Z,222
2018-09-12T02:37:22.079Z,222
2018-09-12T02:37:34.705Z,222
2018-09-12T02:37:47.127Z,222
2018-09-12T02:37:59.580Z,222
2018-09-12T02:38:12.025Z,222
2018-09-12T02:38:24.431Z,222
2018-09-12T02:38:36.846Z,222
2018-09-12T02:38:49.283Z,222
2018-09-12T02:39:01.703Z,222
2018-09-12T02:39:14.127Z,222
2018-09-12T02:39:26.582Z,222
2018-09-12T02:39:39.024Z,215
2018-09-12T02:39:51.431Z,215
2018-09-12T02:40:03.855Z,215
2018-09-12T02:40:16.507Z,215
2018-09-12T02:40:28.987Z,215
2018-09-12T02:40:41.419Z,215
2018-09-12T02:40:53.895Z,215
2018-09-12T02:41:06.323Z,215
2018-09-12T02:41:18.807Z,215
2018-09-12T02:41:31.245Z,215
2018-09-12T02:41:43.644Z,215
2018-09-12T02:41:56.058Z,215
2018-09-12T02:42:08.475Z,215
2018-09-12T02:42:20.878Z,215
2018-09-12T02:42:33.298Z,215
2018-09-12T02:42:45.732Z,215
2018-09-12T02:42:58.155Z,215
2018-09-12T02:43:10.572Z,215
2018-09-12T02:43:22.970Z,215
2018-09-12T02:43:35.399Z,215
2018-09-12T02:43:47.860Z,215
2018-09-12T02:44:00.280Z,215
2018-09-12T02:44:12.700Z,215
2018-09-12T02:44:25.199Z,215
2018-09-12T02:44:37.637Z,215
2018-09-12T02:44:50.040Z,215
2018-09-12T02:45:02.533Z,215
2018-09-12T02:45:15.007Z,215
2018-09-12T02:45:27.433Z,215
2018-09-12T02:45:39.846Z,215
2018-09-12T02:45:52.261Z,215
2018-09-12T02:46:04.691Z,215
2018-09-12T02:46:17.122Z,215
2018-09-12T02:46:29.530Z,215
2018-09-12T02:46:41.958Z,215
2018-09-12T02:46:54.388Z,215
2018-09-12T02:47:06.815Z,223
2018-09-12T02:47:19.247Z,217
2018-09-12T02:47:31.657Z,185
2018-09-12T02:47:44.070Z,181
2018-09-12T02:47:56.490Z,181
2018-09-12T02:48:08.925Z,181
2018-09-12T02:48:21.364Z,181
2018-09-12T02:48:33.800Z,181
2018-09-12T02:48:46.217Z,181
2018-09-12T02:48:58.797Z,181
2018-09-12T02:49:11.220Z,215
2018-09-12T02:49:23.782Z,233
2018-09-12T02:49:36.195Z,260
2018-09-12T02:49:48.604Z,245
2018-09-12T02:50:01.028Z,221
2018-09-12T02:50:13.496Z,188
2018-09-12T02:50:25.941Z,186
2018-09-12T02:50:38.443Z,186
2018-09-12T02:50:50.903Z,186
2018-09-12T02:51:03.331Z,186
2018-09-12T02:51:15.750Z,186